sensor_id;sensor_type;location;lat;lon;timestamp;pressure;altitude;pressure_sealevel;temperature;humidity
72558;BME280;60583;50.094;8.748;2022-10-16T00:00:42;100268.72;;;15.73;100.00
72558;BME280;60583;50.094;8.748;2022-10-16T00:03:08;100264.84;;;15.69;100.00
72558;BME280;60583;50.094;8.748;2022-10-16T00:05:40;100271.88;;;15.70;100.00
72558;BME280;60583;50.094;8.748;2022-10-16T00:08:05;100258.88;;;15.67;100.00
72558;BME280;60583;50.094;8.748;2022-10-16T00:10:31;100253.41;;;15.62;100.00
72558;BME280;60583;50.094;8.748;2022-10-16T00:12:56;100246.72;;;15.64;100.00
72558;BME280;60583;50.094;8.748;2022-10-16T00:15:21;100250.38;;;15.70;100.00
72558;BME280;60583;50.094;8.748;2022-10-16T00:17:47;100245.69;;;15.65;100.00
72558;BME280;60583;50.094;8.748;2022-10-16T00:20:12;100244.28;;;15.63;100.00
72558;BME280;60583;50.094;8.748;2022-10-16T00:22:37;100241.50;;;15.58;100.00
72558;BME280;60583;50.094;8.748;2022-10-16T00:25:03;100238.41;;;15.66;100.00
72558;BME280;60583;50.094;8.748;2022-10-16T00:27:28;100251.16;;;15.59;100.00
72558;BME280;60583;50.094;8.748;2022-10-16T00:29:54;100254.69;;;15.59;100.00
72558;BME280;60583;50.094;8.748;2022-10-16T00:32:20;100269.06;;;15.65;100.00
72558;BME280;60583;50.094;8.748;2022-10-16T00:34:45;100270.00;;;15.59;100.00
72558;BME280;60583;50.094;8.748;2022-10-16T00:37:11;100268.69;;;15.61;100.00
72558;BME280;60583;50.094;8.748;2022-10-16T00:39:37;100258.78;;;15.62;100.00
72558;BME280;60583;50.094;8.748;2022-10-16T00:42:02;100264.97;;;15.62;100.00
72558;BME280;60583;50.094;8.748;2022-10-16T00:45:00;100258.53;;;15.63;100.00
72558;BME280;60583;50.094;8.748;2022-10-16T00:47:35;100255.63;;;15.65;100.00
72558;BME280;60583;50.094;8.748;2022-10-16T00:50:16;100262.50;;;15.72;100.00
72558;BME280;60583;50.094;8.748;2022-10-16T00:52:46;100254.78;;;15.76;100.00
72558;BME280;60583;50.094;8.748;2022-10-16T00:55:12;100259.13;;;15.77;100.00
72558;BME280;60583;50.094;8.748;2022-10-16T00:57:38;100258.53;;;15.75;100.00
72558;BME280;60583;50.094;8.748;2022-10-16T01:00:07;100246.72;;;15.76;100.00
72558;BME280;60583;50.094;8.748;2022-10-16T01:02:33;100247.41;;;15.71;100.00
72558;BME280;60583;50.094;8.748;2022-10-16T01:04:58;100254.78;;;15.76;100.00
72558;BME280;60583;50.094;8.748;2022-10-16T01:07:41;100266.34;;;15.76;100.00
72558;BME280;60583;50.094;8.748;2022-10-16T01:10:27;100246.84;;;15.69;100.00
72558;BME280;60583;50.094;8.748;2022-10-16T01:16:02;100283.06;;;15.78;100.00
72558;BME280;60583;50.094;8.748;2022-10-16T01:18:39;100275.50;;;15.75;100.00
72558;BME280;60583;50.094;8.748;2022-10-16T01:21:12;100284.84;;;15.73;100.00
72558;BME280;60583;50.094;8.748;2022-10-16T01:24:02;100292.91;;;15.73;100.00
72558;BME280;60583;50.094;8.748;2022-10-16T01:29:28;100290.34;;;15.78;100.00
72558;BME280;60583;50.094;8.748;2022-10-16T01:32:04;100294.66;;;15.79;100.00
72558;BME280;60583;50.094;8.748;2022-10-16T01:34:45;100295.22;;;15.81;100.00
72558;BME280;60583;50.094;8.748;2022-10-16T01:37:25;100290.34;;;15.78;100.00
72558;BME280;60583;50.094;8.748;2022-10-16T01:39:55;100288.69;;;15.77;100.00
72558;BME280;60583;50.094;8.748;2022-10-16T01:42:46;100270.78;;;15.71;100.00
72558;BME280;60583;50.094;8.748;2022-10-16T01:45:11;100273.84;;;15.74;100.00
72558;BME280;60583;50.094;8.748;2022-10-16T01:47:39;100272.56;;;15.65;100.00
72558;BME280;60583;50.094;8.748;2022-10-16T01:50:07;100280.88;;;15.75;100.00
72558;BME280;60583;50.094;8.748;2022-10-16T01:52:36;100265.31;;;15.66;100.00
72558;BME280;60583;50.094;8.748;2022-10-16T01:55:05;100272.44;;;15.72;100.00
72558;BME280;60583;50.094;8.748;2022-10-16T01:57:33;100277.13;;;15.76;100.00
72558;BME280;60583;50.094;8.748;2022-10-16T02:00:07;100284.59;;;15.74;100.00
72558;BME280;60583;50.094;8.748;2022-10-16T02:02:34;100299.56;;;15.70;100.00
72558;BME280;60583;50.094;8.748;2022-10-16T02:07:47;100293.47;;;15.63;99.94
72558;BME280;60583;50.094;8.748;2022-10-16T02:10:13;100303.56;;;15.68;100.00
72558;BME280;60583;50.094;8.748;2022-10-16T02:12:41;100301.22;;;15.60;100.00
72558;BME280;60583;50.094;8.748;2022-10-16T02:15:09;100302.69;;;15.56;100.00
72558;BME280;60583;50.094;8.748;2022-10-16T02:17:35;100308.09;;;15.56;100.00
72558;BME280;60583;50.094;8.748;2022-10-16T02:20:00;100293.25;;;15.53;99.97
72558;BME280;60583;50.094;8.748;2022-10-16T02:22:35;100299.81;;;15.57;99.38
72558;BME280;60583;50.094;8.748;2022-10-16T02:27:57;100322.72;;;15.48;99.70
72558;BME280;60583;50.094;8.748;2022-10-16T02:30:36;100311.34;;;15.46;99.34
72558;BME280;60583;50.094;8.748;2022-10-16T02:33:07;100316.50;;;15.48;99.31
72558;BME280;60583;50.094;8.748;2022-10-16T02:35:34;100302.34;;;15.41;99.45
72558;BME280;60583;50.094;8.748;2022-10-16T02:38:00;100304.94;;;15.47;99.20
72558;BME280;60583;50.094;8.748;2022-10-16T02:40:27;100307.97;;;15.51;98.96
72558;BME280;60583;50.094;8.748;2022-10-16T02:42:53;100306.47;;;15.55;98.50
72558;BME280;60583;50.094;8.748;2022-10-16T02:45:20;100313.59;;;15.49;98.28
72558;BME280;60583;50.094;8.748;2022-10-16T02:47:45;100312.75;;;15.49;98.81
72558;BME280;60583;50.094;8.748;2022-10-16T02:50:10;100315.69;;;15.47;98.75
72558;BME280;60583;50.094;8.748;2022-10-16T02:52:36;100315.28;;;15.44;99.11
72558;BME280;60583;50.094;8.748;2022-10-16T02:55:01;100315.53;;;15.42;99.05
72558;BME280;60583;50.094;8.748;2022-10-16T02:57:27;100309.13;;;15.43;99.07
72558;BME280;60583;50.094;8.748;2022-10-16T02:59:52;100313.00;;;15.47;98.90
72558;BME280;60583;50.094;8.748;2022-10-16T03:02:18;100306.06;;;15.40;99.46
72558;BME280;60583;50.094;8.748;2022-10-16T03:04:43;100309.91;;;15.44;99.60
72558;BME280;60583;50.094;8.748;2022-10-16T03:07:09;100315.94;;;15.46;99.58
72558;BME280;60583;50.094;8.748;2022-10-16T03:09:34;100325.63;;;15.47;99.33
72558;BME280;60583;50.094;8.748;2022-10-16T03:11:59;100329.47;;;15.51;98.86
72558;BME280;60583;50.094;8.748;2022-10-16T03:14:25;100336.38;;;15.47;99.72
72558;BME280;60583;50.094;8.748;2022-10-16T03:16:50;100334.75;;;15.46;99.13
72558;BME280;60583;50.094;8.748;2022-10-16T03:19:16;100328.53;;;15.45;99.90
72558;BME280;60583;50.094;8.748;2022-10-16T03:21:42;100332.84;;;15.46;99.85
72558;BME280;60583;50.094;8.748;2022-10-16T03:24:07;100334.25;;;15.49;99.72
72558;BME280;60583;50.094;8.748;2022-10-16T03:26:33;100320.66;;;15.44;99.91
72558;BME280;60583;50.094;8.748;2022-10-16T03:28:58;100339.41;;;15.50;99.19
72558;BME280;60583;50.094;8.748;2022-10-16T03:31:23;100332.41;;;15.49;98.98
72558;BME280;60583;50.094;8.748;2022-10-16T03:33:49;100343.03;;;15.56;98.77
72558;BME280;60583;50.094;8.748;2022-10-16T03:36:14;100351.56;;;15.53;98.56
72558;BME280;60583;50.094;8.748;2022-10-16T03:38:39;100351.69;;;15.58;98.76
72558;BME280;60583;50.094;8.748;2022-10-16T03:41:05;100340.13;;;15.57;97.98
72558;BME280;60583;50.094;8.748;2022-10-16T03:43:32;100340.47;;;15.61;98.05
72558;BME280;60583;50.094;8.748;2022-10-16T03:45:58;100336.16;;;15.60;97.67
72558;BME280;60583;50.094;8.748;2022-10-16T03:48:23;100336.03;;;15.55;98.20
72558;BME280;60583;50.094;8.748;2022-10-16T03:50:48;100352.97;;;15.67;98.10
72558;BME280;60583;50.094;8.748;2022-10-16T03:53:15;100355.22;;;15.70;97.87
72558;BME280;60583;50.094;8.748;2022-10-16T03:55:42;100358.47;;;15.72;97.93
72558;BME280;60583;50.094;8.748;2022-10-16T03:58:08;100351.47;;;15.71;97.93
72558;BME280;60583;50.094;8.748;2022-10-16T04:00:33;100352.97;;;15.67;98.27
72558;BME280;60583;50.094;8.748;2022-10-16T04:02:59;100343.88;;;15.68;98.11
72558;BME280;60583;50.094;8.748;2022-10-16T04:05:25;100354.84;;;15.66;98.35
72558;BME280;60583;50.094;8.748;2022-10-16T04:07:50;100355.56;;;15.62;98.58
72558;BME280;60583;50.094;8.748;2022-10-16T04:10:15;100344.69;;;15.57;98.33
72558;BME280;60583;50.094;8.748;2022-10-16T04:12:41;100350.19;;;15.62;98.67
72558;BME280;60583;50.094;8.748;2022-10-16T04:15:07;100344.34;;;15.65;98.56
72558;BME280;60583;50.094;8.748;2022-10-16T04:17:32;100340.94;;;15.69;98.38
72558;BME280;60583;50.094;8.748;2022-10-16T04:19:57;100349.84;;;15.70;98.32
72558;BME280;60583;50.094;8.748;2022-10-16T04:22:23;100365.16;;;15.69;98.05
72558;BME280;60583;50.094;8.748;2022-10-16T04:24:48;100374.03;;;15.70;98.27
72558;BME280;60583;50.094;8.748;2022-10-16T04:27:13;100366.06;;;15.63;98.11
72558;BME280;60583;50.094;8.748;2022-10-16T04:29:39;100374.63;;;15.60;98.82
72558;BME280;60583;50.094;8.748;2022-10-16T04:32:04;100377.19;;;15.67;98.50
72558;BME280;60583;50.094;8.748;2022-10-16T04:34:29;100381.53;;;15.68;98.40
72558;BME280;60583;50.094;8.748;2022-10-16T04:36:55;100378.72;;;15.63;98.56
72558;BME280;60583;50.094;8.748;2022-10-16T04:39:20;100378.34;;;15.59;98.90
72558;BME280;60583;50.094;8.748;2022-10-16T04:41:45;100370.66;;;15.63;97.93
72558;BME280;60583;50.094;8.748;2022-10-16T04:44:11;100372.13;;;15.59;98.29
72558;BME280;60583;50.094;8.748;2022-10-16T04:46:36;100373.91;;;15.65;98.21
72558;BME280;60583;50.094;8.748;2022-10-16T04:49:01;100366.19;;;15.68;98.33
72558;BME280;60583;50.094;8.748;2022-10-16T04:51:27;100369.94;;;15.67;97.63
72558;BME280;60583;50.094;8.748;2022-10-16T04:53:54;100370.41;;;15.76;97.68
72558;BME280;60583;50.094;8.748;2022-10-16T04:56:20;100365.50;;;15.73;97.12
72558;BME280;60583;50.094;8.748;2022-10-16T04:58:46;100362.81;;;15.73;97.63
72558;BME280;60583;50.094;8.748;2022-10-16T05:01:12;100363.63;;;15.73;98.31
72558;BME280;60583;50.094;8.748;2022-10-16T05:03:37;100363.63;;;15.73;98.08
72558;BME280;60583;50.094;8.748;2022-10-16T05:06:07;100380.25;;;15.70;98.10
72558;BME280;60583;50.094;8.748;2022-10-16T05:08:33;100378.59;;;15.69;98.71
72558;BME280;60583;50.094;8.748;2022-10-16T05:10:58;100382.81;;;15.65;98.07
72558;BME280;60583;50.094;8.748;2022-10-16T05:13:24;100387.59;;;15.75;97.74
72558;BME280;60583;50.094;8.748;2022-10-16T05:15:49;100380.00;;;15.72;97.30
72558;BME280;60583;50.094;8.748;2022-10-16T05:18:15;100382.44;;;15.73;96.97
72558;BME280;60583;50.094;8.748;2022-10-16T05:20:41;100384.34;;;15.73;97.10
72558;BME280;60583;50.094;8.748;2022-10-16T05:23:07;100388.06;;;15.72;97.31
72558;BME280;60583;50.094;8.748;2022-10-16T05:25:35;100391.78;;;15.71;97.22
72558;BME280;60583;50.094;8.748;2022-10-16T05:28:00;100386.66;;;15.69;97.46
72558;BME280;60583;50.094;8.748;2022-10-16T05:30:26;100389.34;;;15.69;97.90
72558;BME280;60583;50.094;8.748;2022-10-16T05:32:51;100393.91;;;15.69;97.58
72558;BME280;60583;50.094;8.748;2022-10-16T05:35:18;100398.34;;;15.75;97.84
72558;BME280;60583;50.094;8.748;2022-10-16T05:37:43;100398.94;;;15.77;98.19
72558;BME280;60583;50.094;8.748;2022-10-16T05:40:10;100396.13;;;15.72;98.88
72558;BME280;60583;50.094;8.748;2022-10-16T05:42:35;100381.66;;;15.73;98.47
72558;BME280;60583;50.094;8.748;2022-10-16T05:45:01;100373.22;;;15.69;98.06
72558;BME280;60583;50.094;8.748;2022-10-16T05:47:26;100372.38;;;15.69;97.85
72558;BME280;60583;50.094;8.748;2022-10-16T05:49:52;100374.03;;;15.70;97.90
72558;BME280;60583;50.094;8.748;2022-10-16T05:52:17;100376.59;;;15.65;97.85
72558;BME280;60583;50.094;8.748;2022-10-16T05:54:43;100388.50;;;15.69;98.14
72558;BME280;60583;50.094;8.748;2022-10-16T05:57:08;100395.53;;;15.70;97.81
72558;BME280;60583;50.094;8.748;2022-10-16T05:59:34;100397.78;;;15.73;97.62
72558;BME280;60583;50.094;8.748;2022-10-16T06:01:59;100401.03;;;15.75;97.57
72558;BME280;60583;50.094;8.748;2022-10-16T06:04:25;100413.22;;;15.77;97.76
72558;BME280;60583;50.094;8.748;2022-10-16T06:06:50;100416.22;;;15.81;97.55
72558;BME280;60583;50.094;8.748;2022-10-16T06:09:15;100428.88;;;15.80;98.15
72558;BME280;60583;50.094;8.748;2022-10-16T06:11:41;100422.69;;;15.80;98.04
72558;BME280;60583;50.094;8.748;2022-10-16T06:14:08;100423.13;;;15.77;98.52
72558;BME280;60583;50.094;8.748;2022-10-16T06:16:35;100432.38;;;15.81;98.47
72558;BME280;60583;50.094;8.748;2022-10-16T06:19:02;100418.09;;;15.69;98.27
72558;BME280;60583;50.094;8.748;2022-10-16T06:21:31;100438.38;;;15.83;97.84
72558;BME280;60583;50.094;8.748;2022-10-16T06:23:58;100432.38;;;15.81;98.27
72558;BME280;60583;50.094;8.748;2022-10-16T06:26:26;100434.25;;;15.80;98.11
72558;BME280;60583;50.094;8.748;2022-10-16T06:28:57;100442.78;;;15.77;98.42
72558;BME280;60583;50.094;8.748;2022-10-16T06:31:23;100446.31;;;15.78;98.01
72558;BME280;60583;50.094;8.748;2022-10-16T06:33:53;100454.13;;;15.79;98.52
72558;BME280;60583;50.094;8.748;2022-10-16T06:36:19;100452.38;;;15.85;98.61
72558;BME280;60583;50.094;8.748;2022-10-16T06:38:46;100448.19;;;15.89;97.83
72558;BME280;60583;50.094;8.748;2022-10-16T06:41:13;100447.91;;;15.79;99.47
72558;BME280;60583;50.094;8.748;2022-10-16T06:43:39;100450.72;;;15.72;100.00
72558;BME280;60583;50.094;8.748;2022-10-16T06:46:06;100440.31;;;15.76;100.00
72558;BME280;60583;50.094;8.748;2022-10-16T06:48:33;100430.16;;;15.78;100.00
72558;BME280;60583;50.094;8.748;2022-10-16T06:51:00;100440.94;;;15.78;100.00
72558;BME280;60583;50.094;8.748;2022-10-16T06:53:27;100446.63;;;15.81;100.00
72558;BME280;60583;50.094;8.748;2022-10-16T06:55:53;100445.81;;;15.81;100.00
72558;BME280;60583;50.094;8.748;2022-10-16T06:58:18;100450.41;;;15.80;100.00
72558;BME280;60583;50.094;8.748;2022-10-16T07:00:44;100452.84;;;15.82;100.00
72558;BME280;60583;50.094;8.748;2022-10-16T07:03:09;100457.31;;;15.88;100.00
72558;BME280;60583;50.094;8.748;2022-10-16T07:05:39;100457.91;;;15.90;100.00
72558;BME280;60583;50.094;8.748;2022-10-16T07:08:05;100458.34;;;15.98;100.00
72558;BME280;60583;50.094;8.748;2022-10-16T07:10:31;100457.56;;;15.98;100.00
72558;BME280;60583;50.094;8.748;2022-10-16T07:12:56;100462.44;;;16.01;100.00
72558;BME280;60583;50.094;8.748;2022-10-16T07:15:22;100464.09;;;16.02;99.97
72558;BME280;60583;50.094;8.748;2022-10-16T07:17:47;100477.09;;;16.17;99.41
72558;BME280;60583;50.094;8.748;2022-10-16T07:20:12;100480.03;;;16.27;98.66
72558;BME280;60583;50.094;8.748;2022-10-16T07:22:38;100473.50;;;16.23;98.63
72558;BME280;60583;50.094;8.748;2022-10-16T07:25:03;100482.97;;;16.25;98.96
72558;BME280;60583;50.094;8.748;2022-10-16T07:27:29;100482.63;;;16.33;98.83
72558;BME280;60583;50.094;8.748;2022-10-16T07:29:54;100493.25;;;16.40;98.73
72558;BME280;60583;50.094;8.748;2022-10-16T07:32:19;100498.78;;;16.33;98.85
72558;BME280;60583;50.094;8.748;2022-10-16T07:34:45;100506.38;;;16.25;99.67
72558;BME280;60583;50.094;8.748;2022-10-16T07:37:10;100516.75;;;16.21;99.70
72558;BME280;60583;50.094;8.748;2022-10-16T07:39:36;100515.72;;;16.22;100.00
72558;BME280;60583;50.094;8.748;2022-10-16T07:42:01;100513.41;;;16.26;99.59
72558;BME280;60583;50.094;8.748;2022-10-16T07:44:27;100524.50;;;16.29;100.00
72558;BME280;60583;50.094;8.748;2022-10-16T07:46:52;100525.06;;;16.31;99.98
72558;BME280;60583;50.094;8.748;2022-10-16T07:49:17;100520.75;;;16.30;100.00
72558;BME280;60583;50.094;8.748;2022-10-16T07:51:43;100531.06;;;16.33;100.00
72558;BME280;60583;50.094;8.748;2022-10-16T07:54:11;100528.34;;;16.22;100.00
72558;BME280;60583;50.094;8.748;2022-10-16T07:56:36;100535.38;;;16.23;100.00
72558;BME280;60583;50.094;8.748;2022-10-16T07:59:02;100534.44;;;16.29;100.00
72558;BME280;60583;50.094;8.748;2022-10-16T08:01:27;100540.69;;;16.41;99.82
72558;BME280;60583;50.094;8.748;2022-10-16T08:03:53;100534.13;;;16.48;99.89
72558;BME280;60583;50.094;8.748;2022-10-16T08:06:20;100524.03;;;16.44;99.54
72558;BME280;60583;50.094;8.748;2022-10-16T08:08:45;100538.44;;;16.49;99.70
72558;BME280;60583;50.094;8.748;2022-10-16T08:11:11;100546.78;;;16.59;98.79
72558;BME280;60583;50.094;8.748;2022-10-16T08:13:36;100566.22;;;16.62;98.49
72558;BME280;60583;50.094;8.748;2022-10-16T08:16:02;100573.25;;;16.63;98.42
72558;BME280;60583;50.094;8.748;2022-10-16T08:18:36;100570.81;;;16.61;98.51
72558;BME280;60583;50.094;8.748;2022-10-16T08:21:02;100577.00;;;16.62;98.78
72558;BME280;60583;50.094;8.748;2022-10-16T08:23:28;100570.91;;;16.54;98.62
72558;BME280;60583;50.094;8.748;2022-10-16T08:25:55;100579.34;;;16.58;98.84
72558;BME280;60583;50.094;8.748;2022-10-16T08:28:21;100580.75;;;16.61;99.46
72558;BME280;60583;50.094;8.748;2022-10-16T08:30:47;100574.19;;;16.56;99.17
72558;BME280;60583;50.094;8.748;2022-10-16T08:33:12;100590.13;;;16.58;99.02
72558;BME280;60583;50.094;8.748;2022-10-16T08:35:38;100590.69;;;16.60;98.61
72558;BME280;60583;50.094;8.748;2022-10-16T08:38:06;100591.97;;;16.57;98.56
72558;BME280;60583;50.094;8.748;2022-10-16T08:40:34;100600.66;;;16.59;98.81
72558;BME280;60583;50.094;8.748;2022-10-16T08:48:47;100614.94;;;16.72;98.64
72558;BME280;60583;50.094;8.748;2022-10-16T08:51:23;100616.22;;;16.69;98.90
72558;BME280;60583;50.094;8.748;2022-10-16T08:53:56;100620.81;;;16.69;98.52
72558;BME280;60583;50.094;8.748;2022-10-16T08:56:22;100624.53;;;16.68;98.49
72558;BME280;60583;50.094;8.748;2022-10-16T08:58:47;100619.16;;;16.68;98.40
72558;BME280;60583;50.094;8.748;2022-10-16T09:01:19;100624.66;;;16.61;98.70
72558;BME280;60583;50.094;8.748;2022-10-16T09:06:45;100633.41;;;16.56;98.92
72558;BME280;60583;50.094;8.748;2022-10-16T09:09:40;100626.88;;;16.52;99.03
72558;BME280;60583;50.094;8.748;2022-10-16T09:12:17;100632.75;;;16.61;98.72
72558;BME280;60583;50.094;8.748;2022-10-16T09:17:55;100646.91;;;16.68;98.22
72558;BME280;60583;50.094;8.748;2022-10-16T09:23:16;100642.91;;;16.59;98.84
72558;BME280;60583;50.094;8.748;2022-10-16T09:25:43;100653.59;;;16.66;98.39
72558;BME280;60583;50.094;8.748;2022-10-16T09:28:09;100643.97;;;16.70;97.95
72558;BME280;60583;50.094;8.748;2022-10-16T09:30:36;100653.50;;;16.84;97.24
72558;BME280;60583;50.094;8.748;2022-10-16T09:33:02;100661.59;;;16.84;97.23
72558;BME280;60583;50.094;8.748;2022-10-16T09:35:37;100671.88;;;16.87;97.08
72558;BME280;60583;50.094;8.748;2022-10-16T09:38:03;100671.88;;;16.87;97.28
72558;BME280;60583;50.094;8.748;2022-10-16T09:40:30;100677.13;;;16.82;97.46
72558;BME280;60583;50.094;8.748;2022-10-16T09:43:20;100677.84;;;16.77;97.96
72558;BME280;60583;50.094;8.748;2022-10-16T09:46:00;100691.09;;;16.79;98.41
72558;BME280;60583;50.094;8.748;2022-10-16T09:48:37;100688.16;;;16.80;98.75
72558;BME280;60583;50.094;8.748;2022-10-16T09:51:06;100684.75;;;16.73;99.05
72558;BME280;60583;50.094;8.748;2022-10-16T09:53:42;100693.53;;;16.80;98.96
72558;BME280;60583;50.094;8.748;2022-10-16T09:56:20;100679.13;;;16.75;99.85
72558;BME280;60583;50.094;8.748;2022-10-16T09:58:50;100688.41;;;16.79;100.00
72558;BME280;60583;50.094;8.748;2022-10-16T10:01:16;100686.63;;;16.84;100.00
72558;BME280;60583;50.094;8.748;2022-10-16T10:03:43;100692.97;;;16.90;99.97
72558;BME280;60583;50.094;8.748;2022-10-16T10:06:22;100694.03;;;16.89;100.00
72558;BME280;60583;50.094;8.748;2022-10-16T10:11:47;100704.00;;;17.00;100.00
72558;BME280;60583;50.094;8.748;2022-10-16T10:14:23;100699.19;;;17.02;99.98
72558;BME280;60583;50.094;8.748;2022-10-16T10:16:51;100689.22;;;17.02;99.97
72558;BME280;60583;50.094;8.748;2022-10-16T10:19:22;100698.00;;;17.09;100.00
72558;BME280;60583;50.094;8.748;2022-10-16T10:21:50;100700.50;;;17.11;100.00
72558;BME280;60583;50.094;8.748;2022-10-16T10:24:17;100694.75;;;17.19;100.00
72558;BME280;60583;50.094;8.748;2022-10-16T10:26:49;100698.50;;;17.30;100.00
72558;BME280;60583;50.094;8.748;2022-10-16T10:29:39;100690.41;;;17.41;99.13
72558;BME280;60583;50.094;8.748;2022-10-16T10:32:18;100678.44;;;17.37;98.69
72558;BME280;60583;50.094;8.748;2022-10-16T10:34:55;100693.22;;;17.46;98.36
72558;BME280;60583;50.094;8.748;2022-10-16T10:40:30;100697.94;;;17.39;98.72
72558;BME280;60583;50.094;8.748;2022-10-16T10:43:26;100690.06;;;17.38;97.81
72558;BME280;60583;50.094;8.748;2022-10-16T10:46:02;100697.81;;;17.34;98.62
72558;BME280;60583;50.094;8.748;2022-10-16T10:48:57;100691.25;;;17.42;98.02
72558;BME280;60583;50.094;8.748;2022-10-16T10:51:44;100689.00;;;17.39;99.08
72558;BME280;60583;50.094;8.748;2022-10-16T10:54:20;100687.00;;;17.46;97.56
72558;BME280;60583;50.094;8.748;2022-10-16T10:56:56;100681.94;;;17.72;96.05
72558;BME280;60583;50.094;8.748;2022-10-16T11:02:46;100680.06;;;20.44;81.33
72558;BME280;60583;50.094;8.748;2022-10-16T11:08:02;100671.41;;;24.73;63.82
72558;BME280;60583;50.094;8.748;2022-10-16T11:10:42;100664.94;;;25.98;59.19
72558;BME280;60583;50.094;8.748;2022-10-16T11:15:43;100653.88;;;26.64;56.17
72558;BME280;60583;50.094;8.748;2022-10-16T11:18:33;100664.34;;;27.95;52.11
72558;BME280;60583;50.094;8.748;2022-10-16T11:21:09;100659.69;;;26.25;55.37
72558;BME280;60583;50.094;8.748;2022-10-16T11:23:43;100660.34;;;26.17;56.78
72558;BME280;60583;50.094;8.748;2022-10-16T11:26:19;100663.25;;;27.09;54.37
72558;BME280;60583;50.094;8.748;2022-10-16T11:28:50;100668.69;;;26.63;55.83
72558;BME280;60583;50.094;8.748;2022-10-16T11:31:32;100662.00;;;28.15;51.45
72558;BME280;60583;50.094;8.748;2022-10-16T11:34:06;100662.94;;;29.44;48.27
72558;BME280;60583;50.094;8.748;2022-10-16T11:36:48;100658.94;;;29.50;47.05
72558;BME280;60583;50.094;8.748;2022-10-16T11:41:49;100663.03;;;26.92;53.08
72558;BME280;60583;50.094;8.748;2022-10-16T11:47:12;100657.16;;;25.68;56.51
72558;BME280;60583;50.094;8.748;2022-10-16T11:49:41;100658.38;;;25.57;56.70
72558;BME280;60583;50.094;8.748;2022-10-16T11:52:17;100669.56;;;24.64;60.46
72558;BME280;60583;50.094;8.748;2022-10-16T11:55:01;100669.94;;;24.03;62.60
72558;BME280;60583;50.094;8.748;2022-10-16T11:57:38;100666.78;;;23.81;63.29
72558;BME280;60583;50.094;8.748;2022-10-16T12:00:16;100664.47;;;23.14;66.37
72558;BME280;60583;50.094;8.748;2022-10-16T12:02:58;100658.16;;;22.38;68.97
72558;BME280;60583;50.094;8.748;2022-10-16T12:08:28;100655.13;;;21.06;74.42
72558;BME280;60583;50.094;8.748;2022-10-16T12:10:53;100657.94;;;20.84;74.69
72558;BME280;60583;50.094;8.748;2022-10-16T12:13:36;100665.66;;;20.39;76.78
72558;BME280;60583;50.094;8.748;2022-10-16T12:18:36;100679.91;;;20.07;78.37
72558;BME280;60583;50.094;8.748;2022-10-16T12:21:02;100658.91;;;21.46;74.00
72558;BME280;60583;50.094;8.748;2022-10-16T12:23:33;100653.44;;;24.67;62.22
72558;BME280;60583;50.094;8.748;2022-10-16T12:26:02;100647.22;;;26.70;55.33
72558;BME280;60583;50.094;8.748;2022-10-16T12:28:36;100639.88;;;28.12;51.16
72558;BME280;60583;50.094;8.748;2022-10-16T12:31:05;100653.19;;;28.76;47.72
72558;BME280;60583;50.094;8.748;2022-10-16T12:33:36;100643.78;;;28.99;46.53
72558;BME280;60583;50.094;8.748;2022-10-16T12:36:09;100644.13;;;29.29;45.97
72558;BME280;60583;50.094;8.748;2022-10-16T12:41:10;100656.22;;;30.23;43.75
72558;BME280;60583;50.094;8.748;2022-10-16T12:43:45;100659.66;;;30.63;42.08
72558;BME280;60583;50.094;8.748;2022-10-16T12:48:38;100659.97;;;30.70;42.35
72558;BME280;60583;50.094;8.748;2022-10-16T12:54:03;100666.78;;;28.10;47.50
72558;BME280;60583;50.094;8.748;2022-10-16T12:59:22;100671.78;;;27.94;49.09
72558;BME280;60583;50.094;8.748;2022-10-16T13:10:15;100666.16;;;23.89;61.17
72558;BME280;60583;50.094;8.748;2022-10-16T13:12:56;100673.34;;;23.70;60.86
72558;BME280;60583;50.094;8.748;2022-10-16T13:15:41;100662.56;;;23.15;62.11
72558;BME280;60583;50.094;8.748;2022-10-16T13:18:23;100666.91;;;22.60;64.49
72558;BME280;60583;50.094;8.748;2022-10-16T13:21:05;100673.38;;;22.34;65.20
72558;BME280;60583;50.094;8.748;2022-10-16T13:23:37;100685.03;;;22.14;66.74
72558;BME280;60583;50.094;8.748;2022-10-16T13:26:09;100679.69;;;21.78;69.04
72558;BME280;60583;50.094;8.748;2022-10-16T13:28:38;100680.25;;;21.80;68.60
72558;BME280;60583;50.094;8.748;2022-10-16T13:31:04;100680.16;;;21.59;69.71
72558;BME280;60583;50.094;8.748;2022-10-16T13:33:39;100674.72;;;21.54;70.95
72558;BME280;60583;50.094;8.748;2022-10-16T13:36:05;100678.44;;;21.43;71.07
72558;BME280;60583;50.094;8.748;2022-10-16T13:38:33;100672.91;;;21.28;71.64
72558;BME280;60583;50.094;8.748;2022-10-16T13:41:14;100677.03;;;21.36;71.26
72558;BME280;60583;50.094;8.748;2022-10-16T13:43:42;100678.66;;;21.37;71.44
72558;BME280;60583;50.094;8.748;2022-10-16T13:46:22;100675.16;;;21.41;72.10
72558;BME280;60583;50.094;8.748;2022-10-16T13:49:14;100671.34;;;21.42;71.69
72558;BME280;60583;50.094;8.748;2022-10-16T13:51:39;100678.59;;;21.27;71.75
72558;BME280;60583;50.094;8.748;2022-10-16T13:54:05;100677.72;;;21.16;71.66
72558;BME280;60583;50.094;8.748;2022-10-16T13:56:32;100668.41;;;21.07;72.50
72558;BME280;60583;50.094;8.748;2022-10-16T13:59:03;100670.53;;;21.05;72.72
72558;BME280;60583;50.094;8.748;2022-10-16T14:01:43;100679.47;;;21.00;72.93
72558;BME280;60583;50.094;8.748;2022-10-16T14:04:10;100677.75;;;20.89;72.82
72558;BME280;60583;50.094;8.748;2022-10-16T14:06:41;100669.78;;;20.78;72.52
72558;BME280;60583;50.094;8.748;2022-10-16T14:09:30;100669.88;;;20.56;73.68